Time;durP1;ratioP1;P1;durP2;ratioP2;P2;SDS_P1;SDS_P2;PMS_P1;PMS_P2;Temp;Humidity;BMP_temperature;BMP_pressure;BME280_temperature;BME280_humidity;BME280_pressure;Samples;Min_cycle;Max_cycle;Signal;HPM_P1;HPM_P2
2022/07/07 00:00:13;;;;;;;0.25;0.25;;;;;;;26.22;40.80;101303.88;5031628;28;20020;-53
2022/07/07 00:02:39;;;;;;;2.97;0.20;;;;;;;26.18;40.67;101296.53;5031838;28;20086;-53
2022/07/07 00:05:06;;;;;;;1.08;0.30;;;;;;;26.30;40.64;101296.88;5031498;28;20028;-54
2022/07/07 00:07:32;;;;;;;1.30;0.30;;;;;;;26.02;40.93;101287.72;5031888;28;20068;-53
2022/07/07 00:09:59;;;;;;;0.20;0.20;;;;;;;26.04;41.08;101297.31;5032109;28;20124;-53
2022/07/07 00:12:25;;;;;;;0.68;0.20;;;;;;;25.89;41.45;101299.47;5031787;28;20508;-53
2022/07/07 00:14:51;;;;;;;0.60;0.30;;;;;;;25.96;41.17;101297.97;5031751;28;20470;-53
2022/07/07 00:17:18;;;;;;;0.20;0.20;;;;;;;26.05;40.98;101298.13;5031658;28;20069;-54
2022/07/07 00:19:44;;;;;;;0.77;0.30;;;;;;;26.15;40.11;101297.97;5031534;28;20104;-52
2022/07/07 00:22:10;;;;;;;0.20;0.20;;;;;;;26.19;40.73;101298.16;5032258;28;20029;-53
2022/07/07 00:24:39;;;;;;;0.93;0.20;;;;;;;25.94;40.36;101291.16;5030547;28;20048;-52
2022/07/07 00:27:05;;;;;;;0.10;0.10;;;;;;;25.84;41.28;101299.53;5030620;28;20095;-53
2022/07/07 00:29:31;;;;;;;0.32;0.15;;;;;;;25.68;41.24;101293.44;5031254;28;20025;-54
2022/07/07 00:31:57;;;;;;;0.30;0.30;;;;;;;25.76;41.37;101299.09;5030941;28;20385;-53
2022/07/07 00:34:24;;;;;;;0.20;0.20;;;;;;;25.80;41.01;101289.16;5030624;28;20025;-56
2022/07/07 00:36:50;;;;;;;0.50;0.20;;;;;;;25.71;41.26;101295.59;5026552;28;20065;-55
2022/07/07 00:39:16;;;;;;;0.50;0.30;;;;;;;25.71;40.96;101285.44;5030828;28;20030;-55
2022/07/07 00:41:42;;;;;;;0.30;0.20;;;;;;;25.52;41.58;101290.91;5031292;28;20109;-56
2022/07/07 00:44:13;;;;;;;1.35;0.35;;;;;;;25.45;41.70;101289.66;5018056;28;20033;-55
2022/07/07 00:46:43;;;;;;;0.30;0.30;;;;;;;25.32;42.23;101285.72;5023980;28;20269;-55
2022/07/07 00:49:12;;;;;;;0.55;0.40;;;;;;;25.20;42.95;101293.53;5032553;28;20036;-55
2022/07/07 00:51:41;;;;;;;0.50;0.50;;;;;;;25.17;43.18;101283.97;5051728;28;20032;-55
2022/07/07 00:54:08;;;;;;;0.77;0.40;;;;;;;25.08;42.91;101284.91;5037471;28;20048;-55
2022/07/07 00:56:35;;;;;;;0.30;0.30;;;;;;;25.02;42.91;101276.72;5044074;28;20099;-55
2022/07/07 00:59:08;;;;;;;0.52;0.30;;;;;;;24.94;42.89;101271.09;5031580;28;20478;-55
2022/07/07 01:01:42;;;;;;;0.20;0.20;;;;;;;24.99;42.84;101266.38;5031697;28;20096;-55
2022/07/07 01:04:11;;;;;;;2.33;0.25;;;;;;;24.73;43.51;101265.84;5031924;28;20167;-55
2022/07/07 01:06:37;;;;;;;0.28;0.22;;;;;;;24.64;44.17;101264.03;5051501;28;20035;-55
2022/07/07 01:09:04;;;;;;;0.40;0.15;;;;;;;24.64;44.05;101269.50;5044141;28;20610;-55
2022/07/07 01:11:54;;;;;;;0.75;0.40;;;;;;;24.44;44.44;101270.53;5031505;28;20025;-55
2022/07/07 01:14:22;;;;;;;1.95;0.30;;;;;;;24.52;44.11;101272.63;5031171;28;20104;-55
2022/07/07 01:16:49;;;;;;;1.17;0.40;;;;;;;24.48;44.52;101272.38;5049888;28;20025;-55
2022/07/07 01:19:16;;;;;;;1.95;0.47;;;;;;;24.48;44.98;101268.84;5051449;28;20413;-54
2022/07/07 01:21:57;;;;;;;0.82;0.40;;;;;;;24.55;44.24;101272.06;5045699;28;20029;-54
2022/07/07 01:24:26;;;;;;;0.35;0.35;;;;;;;24.35;44.67;101275.00;5037668;23;20049;-54
2022/07/07 01:27:25;;;;;;;2.50;0.40;;;;;;;24.21;45.46;101272.91;5028306;28;20030;-54
2022/07/07 01:29:53;;;;;;;0.70;0.30;;;;;;;24.30;44.77;101275.81;4972343;28;20080;-52
2022/07/07 01:32:21;;;;;;;0.93;0.22;;;;;;;24.29;44.94;101271.44;5029089;28;20026;-53
2022/07/07 01:34:49;;;;;;;1.08;0.30;;;;;;;24.31;44.68;101276.63;5015557;28;20083;-53
2022/07/07 01:37:16;;;;;;;0.63;0.35;;;;;;;24.41;44.87;101279.31;5052731;28;20381;-53
2022/07/07 01:39:43;;;;;;;1.90;0.30;;;;;;;24.18;43.98;101275.38;5034920;28;20041;-52
2022/07/07 01:42:10;;;;;;;0.65;0.20;;;;;;;24.09;44.82;101279.81;5032360;28;20108;-53
2022/07/07 01:44:38;;;;;;;0.28;0.20;;;;;;;24.05;44.74;101273.31;5016624;28;20453;-52
2022/07/07 01:47:05;;;;;;;0.93;0.30;;;;;;;23.92;44.84;101283.78;5032438;28;20036;-53
2022/07/07 01:49:33;;;;;;;0.20;0.20;;;;;;;24.07;45.25;101276.56;5032993;28;20033;-53
2022/07/07 01:52:00;;;;;;;0.40;0.30;;;;;;;24.08;45.34;101281.75;5024513;28;20021;-53
2022/07/07 01:54:28;;;;;;;0.28;0.28;;;;;;;23.91;45.10;101278.59;5033221;28;20032;-53
2022/07/07 01:56:55;;;;;;;1.73;0.28;;;;;;;23.79;45.48;101281.69;5036131;28;20118;-58
2022/07/07 01:59:21;;;;;;;0.52;0.20;;;;;;;23.89;45.19;101278.88;5029120;28;20411;-58
2022/07/07 02:01:47;;;;;;;0.43;0.20;;;;;;;24.26;45.31;101284.88;5032758;28;20022;-57
2022/07/07 02:04:13;;;;;;;0.20;0.20;;;;;;;24.54;44.06;101275.06;5033097;28;20033;-57
2022/07/07 02:06:40;;;;;;;0.20;0.20;;;;;;;24.31;43.65;101282.91;5034711;28;20095;-57
2022/07/07 02:09:07;;;;;;;0.30;0.20;;;;;;;24.64;43.45;101278.53;5052528;28;20107;-57
2022/07/07 02:11:34;;;;;;;0.63;0.13;;;;;;;24.55;43.61;101279.47;5044736;28;20492;-58
2022/07/07 02:14:02;;;;;;;0.30;0.15;;;;;;;24.58;43.75;101282.41;5032013;28;20038;-56
2022/07/07 02:16:28;;;;;;;1.17;0.30;;;;;;;24.44;43.05;101281.47;5032596;28;20492;-56
2022/07/07 02:18:58;;;;;;;0.40;0.30;;;;;;;24.69;42.96;101283.13;5032582;28;20026;-56
2022/07/07 02:21:25;;;;;;;0.20;0.20;;;;;;;24.74;43.04;101278.41;5031650;28;20068;-56
2022/07/07 02:23:54;;;;;;;0.67;0.30;;;;;;;24.48;43.80;101294.28;4939749;28;2693725;-56
2022/07/07 02:26:20;;;;;;;0.30;0.30;;;;;;;24.36;43.72;101296.59;5033975;28;20512;-55
2022/07/07 02:28:46;;;;;;;0.47;0.20;;;;;;;24.36;43.49;101299.31;5033817;28;20434;-57
2022/07/07 02:31:14;;;;;;;0.65;0.20;;;;;;;24.41;43.46;101298.47;5025410;28;20033;-53
2022/07/07 02:33:40;;;;;;;0.35;0.20;;;;;;;24.67;43.05;101301.78;5032616;28;20022;-48
2022/07/07 02:36:08;;;;;;;0.80;0.20;;;;;;;24.36;43.41;101298.50;5032600;28;20029;-48
2022/07/07 02:38:35;;;;;;;0.30;0.30;;;;;;;24.34;43.59;101303.44;5033497;28;20033;-51
2022/07/07 02:41:02;;;;;;;0.40;0.30;;;;;;;24.12;43.89;101298.41;5035376;28;20028;-49
2022/07/07 02:43:29;;;;;;;0.20;0.10;;;;;;;23.55;45.42;101302.59;5033465;28;20032;-51
2022/07/07 02:45:55;;;;;;;0.30;0.30;;;;;;;23.44;45.83;101297.19;5033720;28;20022;-50
2022/07/07 02:48:24;;;;;;;0.45;0.20;;;;;;;23.51;45.50;101306.97;5049344;28;20025;-48
2022/07/07 02:50:51;;;;;;;0.30;0.20;;;;;;;23.15;46.15;101293.47;5053305;28;20489;-51
2022/07/07 02:53:18;;;;;;;1.55;0.50;;;;;;;23.52;45.71;101303.13;5044649;28;20044;-50
2022/07/07 02:55:45;;;;;;;0.30;0.20;;;;;;;23.59;45.51;101292.72;5033463;28;20044;-51
2022/07/07 02:58:13;;;;;;;0.40;0.20;;;;;;;23.55;45.31;101297.13;5033342;28;20160;-49
2022/07/07 03:00:40;;;;;;;0.30;0.30;;;;;;;23.54;45.57;101295.47;5033730;28;20037;-49
2022/07/07 03:03:08;;;;;;;0.50;0.20;;;;;;;22.75;47.16;101299.84;5033820;28;20432;-51
2022/07/07 03:05:34;;;;;;;0.17;0.17;;;;;;;22.59;47.81;101296.31;5033395;28;20105;-50
2022/07/07 03:08:01;;;;;;;0.25;0.10;;;;;;;22.11;48.66;101302.09;5032035;28;20013;-52
2022/07/07 03:10:27;;;;;;;0.20;0.20;;;;;;;21.71;49.94;101294.66;5012671;28;20030;-52
2022/07/07 03:12:54;;;;;;;0.70;0.32;;;;;;;21.60;50.86;101301.97;5022482;28;20100;-52
2022/07/07 03:15:20;;;;;;;0.20;0.20;;;;;;;21.17;51.66;101303.16;5015690;28;20041;-54
2022/07/07 03:17:49;;;;;;;0.50;0.20;;;;;;;21.06;52.07;101298.75;5012944;28;20446;-54
2022/07/07 03:20:18;;;;;;;0.30;0.28;;;;;;;20.98;52.57;101299.22;5039594;28;20013;-54
2022/07/07 03:22:45;;;;;;;0.63;0.20;;;;;;;20.52;54.04;101293.50;5036234;28;20120;-54
2022/07/07 03:25:12;;;;;;;0.85;0.20;;;;;;;20.46;53.78;101297.28;5032374;28;20107;-53
2022/07/07 03:27:39;;;;;;;0.30;0.30;;;;;;;20.25;54.55;101297.06;5023775;28;20049;-54
2022/07/07 03:30:07;;;;;;;0.20;0.10;;;;;;;20.17;54.77;101296.75;5039382;28;20037;-53
2022/07/07 03:32:33;;;;;;;0.25;0.10;;;;;;;20.22;54.66;101292.19;5032408;28;20029;-52
2022/07/07 03:35:00;;;;;;;0.17;0.17;;;;;;;20.01;55.01;101303.94;5047460;28;20036;-53
2022/07/07 03:37:29;;;;;;;0.20;0.20;;;;;;;19.95;55.06;101310.41;5051339;28;20033;-53
2022/07/07 03:39:55;;;;;;;0.25;0.17;;;;;;;19.85;55.42;101307.59;5032191;28;20029;-53
2022/07/07 03:42:22;;;;;;;1.20;0.20;;;;;;;19.58;56.13;101310.25;5031867;28;20030;-54
2022/07/07 03:44:48;;;;;;;0.30;0.20;;;;;;;19.58;56.09;101307.53;5037915;28;20079;-53
2022/07/07 03:47:14;;;;;;;0.30;0.30;;;;;;;19.39;57.08;101315.19;5038913;28;20040;-53
2022/07/07 03:49:41;;;;;;;1.00;0.30;;;;;;;19.33;57.66;101316.22;5031919;28;20049;-53
2022/07/07 03:52:08;;;;;;;0.20;0.20;;;;;;;19.19;57.37;101313.84;5032049;28;20029;-53
2022/07/07 03:54:34;;;;;;;0.55;0.20;;;;;;;19.22;57.69;101307.13;5032086;28;20131;-53
2022/07/07 03:57:00;;;;;;;0.20;0.20;;;;;;;19.26;57.88;101311.75;5031809;28;20029;-53
2022/07/07 03:59:26;;;;;;;0.30;0.30;;;;;;;19.14;58.04;101319.22;5049380;28;20475;-50
2022/07/07 04:01:52;;;;;;;0.65;0.20;;;;;;;19.13;58.41;101320.28;5052016;28;20048;-52
2022/07/07 04:04:19;;;;;;;0.98;0.22;;;;;;;18.72;59.58;101325.16;5026876;28;20496;-53
2022/07/07 04:06:45;;;;;;;1.45;0.20;;;;;;;18.77;59.63;101323.56;5032009;28;20117;-52
2022/07/07 04:09:11;;;;;;;0.30;0.30;;;;;;;19.06;58.96;101327.81;5036943;28;20028;-53
2022/07/07 04:11:38;;;;;;;0.50;0.40;;;;;;;18.85;59.62;101325.88;5051351;28;20025;-51
2022/07/07 04:14:05;;;;;;;1.75;0.25;;;;;;;18.85;59.22;101331.28;5045672;28;20060;-52
2022/07/07 04:16:31;;;;;;;0.38;0.30;;;;;;;18.84;59.45;101325.03;5031779;28;20030;-53
2022/07/07 04:18:57;;;;;;;2.03;0.30;;;;;;;18.58;60.53;101336.53;5031470;28;20026;-55
2022/07/07 04:21:24;;;;;;;0.65;0.20;;;;;;;18.60;60.29;101343.38;5031726;28;20032;-53
2022/07/07 04:23:50;;;;;;;0.50;0.30;;;;;;;18.73;59.91;101339.53;5031567;28;20072;-50
2022/07/07 04:26:16;;;;;;;0.90;0.30;;;;;;;18.65;60.43;101346.13;5031422;28;20048;-51
2022/07/07 04:28:43;;;;;;;0.30;0.17;;;;;;;18.48;60.92;101348.03;5031374;28;20033;-53
2022/07/07 04:31:09;;;;;;;0.32;0.25;;;;;;;18.39;61.37;101352.22;5031613;28;20028;-52
2022/07/07 04:33:35;;;;;;;0.20;0.20;;;;;;;18.48;60.85;101342.63;5031684;28;20093;-52
2022/07/07 04:36:01;;;;;;;0.20;0.20;;;;;;;18.28;61.44;101347.72;5031552;28;20101;-52
2022/07/07 04:38:27;;;;;;;0.40;0.30;;;;;;;18.36;61.29;101355.44;5034020;28;20477;-53
2022/07/07 04:40:54;;;;;;;0.40;0.28;;;;;;;18.09;61.85;101356.03;5034049;28;20030;-52
2022/07/07 04:43:20;;;;;;;0.45;0.25;;;;;;;18.26;61.60;101355.25;5031137;28;20378;-50
2022/07/07 04:45:46;;;;;;;0.28;0.28;;;;;;;18.29;61.37;101360.19;5013790;28;20037;-51
2022/07/07 04:48:12;;;;;;;0.20;0.20;;;;;;;18.37;61.59;101360.59;5031432;28;20063;-52
2022/07/07 04:50:39;;;;;;;0.55;0.35;;;;;;;18.28;61.59;101363.97;5031003;28;20030;-53
2022/07/07 04:53:05;;;;;;;0.20;0.20;;;;;;;18.26;61.70;101366.09;5031460;28;20091;-52
2022/07/07 04:55:31;;;;;;;0.35;0.20;;;;;;;18.20;61.75;101363.28;5031466;28;20092;-52
2022/07/07 04:57:57;;;;;;;0.50;0.30;;;;;;;18.21;61.90;101366.81;5031383;28;20037;-52
2022/07/07 05:00:23;;;;;;;0.57;0.28;;;;;;;18.13;62.01;101367.22;5030923;28;20109;-52
2022/07/07 05:02:50;;;;;;;0.10;0.10;;;;;;;18.26;61.38;101371.50;5024289;28;20018;-53
2022/07/07 05:05:16;;;;;;;0.22;0.10;;;;;;;18.17;61.76;101369.19;5011680;28;20030;-52
2022/07/07 05:07:42;;;;;;;0.15;0.15;;;;;;;18.25;61.55;101378.00;5011477;28;20104;-52
2022/07/07 05:10:09;;;;;;;0.22;0.20;;;;;;;18.14;62.00;101374.28;5011257;28;20066;-52
2022/07/07 05:12:35;;;;;;;0.17;0.17;;;;;;;18.16;62.00;101381.13;5030594;28;20025;-51
2022/07/07 05:15:01;;;;;;;0.30;0.30;;;;;;;18.11;62.55;101375.59;5034649;28;20022;-52
2022/07/07 05:17:27;;;;;;;0.15;0.15;;;;;;;17.99;62.45;101382.97;5035146;28;20532;-53
2022/07/07 05:19:54;;;;;;;0.57;0.20;;;;;;;18.07;62.44;101385.25;5034620;28;20041;-52
2022/07/07 05:22:20;;;;;;;0.50;0.20;;;;;;;18.07;62.45;101387.16;5035034;28;20021;-51
2022/07/07 05:24:46;;;;;;;0.10;0.10;;;;;;;18.02;62.77;101396.00;5034619;28;20041;-52
2022/07/07 05:27:12;;;;;;;0.10;0.10;;;;;;;18.00;62.42;101390.03;5035083;28;20044;-52
2022/07/07 05:29:39;;;;;;;0.20;0.10;;;;;;;17.90;62.62;101390.63;5041970;28;20586;-52
2022/07/07 05:32:05;;;;;;;1.27;0.20;;;;;;;17.93;62.42;101400.16;5054781;28;20090;-53
2022/07/07 05:34:31;;;;;;;0.57;0.20;;;;;;;17.95;62.63;101392.63;5054695;28;20330;-51
2022/07/07 05:36:58;;;;;;;0.10;0.10;;;;;;;18.01;62.23;101396.25;5054614;28;20021;-51
2022/07/07 05:39:24;;;;;;;0.22;0.10;;;;;;;17.91;62.21;101396.88;5054130;28;20040;-53
2022/07/07 05:41:50;;;;;;;0.15;0.15;;;;;;;17.89;62.35;101401.72;5035930;28;20485;-52
2022/07/07 05:44:16;;;;;;;0.40;0.22;;;;;;;18.05;61.50;101400.13;5033246;28;20053;-51
2022/07/07 05:46:43;;;;;;;0.15;0.15;;;;;;;18.18;61.13;101403.34;5034555;28;20025;-52
2022/07/07 05:49:09;;;;;;;1.60;0.20;;;;;;;18.04;61.62;101409.28;5032055;28;20036;-52
2022/07/07 05:51:35;;;;;;;0.20;0.20;;;;;;;18.08;61.85;101414.00;5034204;28;20038;-53
2022/07/07 05:54:01;;;;;;;0.45;0.10;;;;;;;18.04;61.54;101409.28;5033656;28;20381;-52
2022/07/07 05:56:27;;;;;;;0.20;0.20;;;;;;;17.96;62.32;101407.81;5034300;28;20041;-50
2022/07/07 05:58:54;;;;;;;0.10;0.10;;;;;;;17.78;63.13;101405.28;5033126;28;20079;-52
2022/07/07 06:01:20;;;;;;;0.85;0.30;;;;;;;17.77;62.89;101403.66;5034128;28;20025;-52
2022/07/07 06:03:46;;;;;;;0.45;0.20;;;;;;;17.68;63.33;101397.75;5032707;28;20150;-49
2022/07/07 06:06:13;;;;;;;0.20;0.20;;;;;;;17.83;62.94;101405.38;5034020;28;20409;-53
2022/07/07 06:08:39;;;;;;;0.40;0.20;;;;;;;17.85;63.09;101395.94;5033061;28;20147;-51
2022/07/07 06:11:05;;;;;;;1.08;0.25;;;;;;;17.79;62.94;101399.63;5032897;28;20035;-52
2022/07/07 06:13:31;;;;;;;0.30;0.10;;;;;;;17.56;63.97;101397.78;5032165;28;20474;-52
2022/07/07 06:15:57;;;;;;;0.40;0.20;;;;;;;17.79;62.98;101396.09;5034247;28;20029;-52
2022/07/07 06:18:24;;;;;;;0.35;0.10;;;;;;;17.50;63.91;101387.91;5030399;28;20037;-51
2022/07/07 06:20:50;;;;;;;0.40;0.20;;;;;;;17.62;63.59;101390.56;5032662;28;20025;-50
2022/07/07 06:23:16;;;;;;;0.10;0.10;;;;;;;17.75;63.16;101398.44;5031703;28;20050;-50
2022/07/07 06:25:45;;;;;;;0.10;0.10;;;;;;;17.49;63.43;101388.13;5033726;28;20474;-50
2022/07/07 06:28:12;;;;;;;0.70;0.20;;;;;;;17.56;62.97;101384.25;5030152;28;20394;-51
2022/07/07 06:30:38;;;;;;;0.13;0.10;;;;;;;17.71;62.87;101399.13;5033291;28;20028;-52
2022/07/07 06:33:04;;;;;;;0.40;0.20;;;;;;;17.60;63.36;101396.25;5031519;28;20031;-50
2022/07/07 06:35:31;;;;;;;0.28;0.03;;;;;;;17.60;63.04;101390.81;5033382;28;20030;-52
2022/07/07 06:37:57;;;;;;;0.60;0.20;;;;;;;17.42;64.00;101404.50;5031706;28;20443;-49
2022/07/07 06:40:23;;;;;;;0.10;0.10;;;;;;;17.47;63.28;101401.06;5032971;28;20018;-51
2022/07/07 06:42:50;;;;;;;0.10;0.10;;;;;;;17.64;63.22;101396.56;5032293;28;20034;-52
2022/07/07 06:45:16;;;;;;;0.20;0.10;;;;;;;17.41;63.79;101389.31;5031414;28;20025;-48
2022/07/07 06:47:42;;;;;;;0.20;0.20;;;;;;;17.44;63.87;101388.84;5031913;28;20034;-52
2022/07/07 06:50:09;;;;;;;0.38;0.22;;;;;;;17.39;64.15;101399.56;5032808;28;20052;-52
2022/07/07 06:52:35;;;;;;;0.28;0.20;;;;;;;17.39;63.94;101386.88;5031614;28;20087;-52
2022/07/07 06:55:03;;;;;;;0.40;0.32;;;;;;;17.52;63.47;101396.59;5033394;28;20028;-52
2022/07/07 06:57:29;;;;;;;0.25;0.20;;;;;;;17.38;64.00;101397.94;5031493;28;20025;-52
2022/07/07 06:59:55;;;;;;;0.43;0.28;;;;;;;17.32;64.42;101390.75;5032741;28;20030;-52
2022/07/07 07:02:22;;;;;;;0.43;0.10;;;;;;;17.08;64.96;101392.66;5025986;28;20018;-52
2022/07/07 07:04:50;;;;;;;0.50;0.10;;;;;;;17.09;64.50;101387.00;5013098;28;20028;-52
2022/07/07 07:07:17;;;;;;;0.25;0.10;;;;;;;17.10;64.73;101388.66;5029960;28;20033;-51
2022/07/07 07:09:43;;;;;;;0.57;0.20;;;;;;;17.08;64.54;101393.47;5032533;28;20026;-52
2022/07/07 07:12:10;;;;;;;0.40;0.22;;;;;;;17.15;64.63;101390.63;5032063;28;20040;-52
2022/07/07 07:14:36;;;;;;;0.10;0.10;;;;;;;17.07;64.83;101382.88;5032454;28;20032;-50
2022/07/07 07:17:02;;;;;;;0.22;0.10;;;;;;;16.97;65.40;101391.59;5031092;28;20095;-51
2022/07/07 07:19:29;;;;;;;0.03;0.00;;;;;;;17.17;64.03;101379.59;5031115;28;20021;-49
2022/07/07 07:21:55;;;;;;;0.00;0.00;;;;;;;17.09;64.73;101386.16;5032596;28;20057;-49
2022/07/07 07:24:21;;;;;;;0.13;0.10;;;;;;;17.10;64.92;101387.81;5028567;28;20521;-50
2022/07/07 07:26:47;;;;;;;0.85;0.20;;;;;;;16.91;65.26;101381.72;5032585;28;20061;-53
2022/07/07 07:29:14;;;;;;;0.10;0.10;;;;;;;16.91;65.32;101386.28;5013397;28;20124;-51
2022/07/07 07:31:40;;;;;;;0.17;0.10;;;;;;;17.01;64.81;101378.44;5032411;28;20030;-52
2022/07/07 07:34:07;;;;;;;0.30;0.10;;;;;;;16.84;65.46;101383.72;5030419;28;20052;-51
2022/07/07 07:36:33;;;;;;;0.50;0.20;;;;;;;16.66;66.15;101378.34;5030239;28;20029;-51
2022/07/07 07:38:59;;;;;;;0.30;0.13;;;;;;;16.81;65.57;101381.47;5032295;28;20029;-48
2022/07/07 07:41:26;;;;;;;0.20;0.20;;;;;;;16.57;66.55;101376.00;5030975;28;20028;-49
2022/07/07 07:43:52;;;;;;;0.17;0.10;;;;;;;16.72;65.60;101377.47;5032299;28;20064;-51
2022/07/07 07:46:19;;;;;;;1.45;0.10;;;;;;;16.72;65.60;101374.78;5031249;28;20037;-51
2022/07/07 07:48:46;;;;;;;0.10;0.10;;;;;;;16.58;66.68;101382.22;5031836;28;20124;-52
2022/07/07 07:51:12;;;;;;;0.17;0.10;;;;;;;16.55;66.57;101386.25;5027746;28;20030;-52
2022/07/07 07:53:38;;;;;;;0.13;0.13;;;;;;;16.63;66.08;101383.19;5031360;28;20049;-51
2022/07/07 07:56:05;;;;;;;0.17;0.17;;;;;;;16.30;67.40;101385.56;5037999;23;20103;-51
2022/07/07 07:58:31;;;;;;;0.10;0.10;;;;;;;16.41;66.98;101386.66;5032114;28;20025;-51
2022/07/07 08:00:58;;;;;;;0.20;0.15;;;;;;;16.53;66.75;101390.22;5030592;28;20053;-52
2022/07/07 08:03:24;;;;;;;0.20;0.10;;;;;;;16.55;66.28;101382.72;5014199;28;20026;-52
2022/07/07 08:05:50;;;;;;;0.55;0.20;;;;;;;16.64;66.10;101384.00;5013130;28;20021;-52
2022/07/07 08:08:16;;;;;;;0.32;0.10;;;;;;;16.61;66.07;101377.19;5031592;28;20067;-53
2022/07/07 08:10:43;;;;;;;0.10;0.10;;;;;;;16.70;65.53;101380.38;5031118;28;20029;-50
2022/07/07 08:13:09;;;;;;;0.35;0.20;;;;;;;16.70;65.85;101380.38;5031635;28;20482;-51
2022/07/07 08:15:36;;;;;;;0.73;0.30;;;;;;;16.58;66.19;101379.53;5030500;28;20088;-51
2022/07/07 08:18:03;;;;;;;0.17;0.17;;;;;;;16.61;66.13;101381.78;5029732;28;20156;-51
2022/07/07 08:20:29;;;;;;;0.20;0.20;;;;;;;16.61;66.31;101385.31;5030789;28;20065;-52
2022/07/07 08:22:56;;;;;;;0.30;0.30;;;;;;;16.86;65.80;101384.28;5030500;28;20029;-51
2022/07/07 08:25:22;;;;;;;0.47;0.20;;;;;;;16.77;65.90;101386.53;5031837;28;20057;-52
2022/07/07 08:27:49;;;;;;;0.60;0.20;;;;;;;16.88;65.91;101391.13;5029372;28;20134;-51
2022/07/07 08:30:15;;;;;;;0.17;0.10;;;;;;;16.72;66.85;101385.59;5031409;28;20029;-52
2022/07/07 08:32:45;;;;;;;0.57;0.30;;;;;;;16.78;66.96;101392.75;5029382;28;20033;-51
2022/07/07 08:35:11;;;;;;;0.52;0.20;;;;;;;16.77;67.05;101394.66;5031970;28;20025;-52
2022/07/07 08:37:37;;;;;;;1.13;0.40;;;;;;;16.91;66.73;101381.72;5025798;28;20033;-49
2022/07/07 08:40:04;;;;;;;0.10;0.10;;;;;;;16.81;67.21;101386.88;5014133;28;20041;-50
2022/07/07 08:42:30;;;;;;;0.60;0.20;;;;;;;16.85;67.21;101385.34;5029286;28;20036;-51
2022/07/07 08:44:57;;;;;;;0.20;0.20;;;;;;;16.85;67.24;101388.06;5022903;28;20074;-51
2022/07/07 08:47:25;;;;;;;0.20;0.20;;;;;;;16.95;66.76;101382.06;5014829;28;20522;-49
2022/07/07 08:49:51;;;;;;;0.73;0.13;;;;;;;16.80;66.78;101385.22;5015333;28;20406;-50
2022/07/07 08:52:18;;;;;;;0.35;0.20;;;;;;;16.92;66.50;101382.53;5012570;28;20021;-53
2022/07/07 08:54:46;;;;;;;0.20;0.20;;;;;;;17.00;65.53;101384.91;5015224;28;20053;-52
2022/07/07 08:57:13;;;;;;;0.30;0.30;;;;;;;17.03;65.83;101382.53;5017009;28;20386;-48
2022/07/07 08:59:39;;;;;;;1.10;0.20;;;;;;;16.98;65.58;101377.00;5026463;28;20063;-52
2022/07/07 09:02:05;;;;;;;1.08;0.20;;;;;;;17.04;65.04;101376.06;5019390;28;20022;-51
2022/07/07 09:04:31;;;;;;;1.17;0.10;;;;;;;17.14;64.90;101381.69;5015385;28;20474;-51
2022/07/07 09:07:03;;;;;;;1.17;0.40;;;;;;;17.11;64.95;101382.19;5014858;28;20033;-51
2022/07/07 09:09:45;;;;;;;0.20;0.10;;;;;;;17.06;65.56;101383.97;5015092;28;20034;-52
2022/07/07 09:12:14;;;;;;;0.25;0.20;;;;;;;16.91;65.89;101381.72;5012672;28;20116;-52
2022/07/07 09:14:43;;;;;;;0.50;0.15;;;;;;;16.94;65.77;101383.97;5016489;28;20025;-52
2022/07/07 09:17:33;;;;;;;0.50;0.20;;;;;;;16.86;66.03;101382.41;5022896;28;20017;-52
2022/07/07 09:20:03;;;;;;;0.50;0.10;;;;;;;16.91;65.70;101392.53;5015615;28;20116;-51
2022/07/07 09:22:49;;;;;;;0.52;0.08;;;;;;;16.71;66.28;101394.72;5020132;28;20109;-50
2022/07/07 09:25:17;;;;;;;1.80;0.35;;;;;;;16.89;65.73;101391.94;5015350;28;20054;-49
2022/07/07 09:27:55;;;;;;;0.22;0.10;;;;;;;17.05;64.73;101404.78;5031741;28;20021;-52
2022/07/07 09:30:31;;;;;;;0.65;0.10;;;;;;;16.88;65.59;101401.13;5034993;28;20504;-52
2022/07/07 09:32:59;;;;;;;0.38;0.20;;;;;;;16.92;65.24;101394.16;5035458;28;20104;-48
2022/07/07 09:38:17;;;;;;;0.30;0.10;;;;;;;16.93;65.05;101389.56;5015157;28;20036;-51
2022/07/07 09:40:55;;;;;;;1.27;0.20;;;;;;;16.92;65.13;101398.75;5014861;28;20029;-52
2022/07/07 09:43:22;;;;;;;1.45;0.10;;;;;;;16.87;65.28;101399.44;5020317;28;20425;-52
2022/07/07 09:46:23;;;;;;;0.25;0.20;;;;;;;16.79;65.63;101389.81;5034344;28;20502;-51
2022/07/07 09:48:50;;;;;;;0.70;0.20;;;;;;;16.86;65.52;101400.50;5033982;28;20032;-53
2022/07/07 09:51:24;;;;;;;0.35;0.20;;;;;;;16.80;65.60;101387.94;5018702;28;20033;-50
2022/07/07 09:53:55;;;;;;;0.15;0.10;;;;;;;16.77;65.72;101391.13;5034795;28;20390;-52
2022/07/07 09:56:27;;;;;;;0.28;0.20;;;;;;;16.61;66.55;101398.81;5032002;28;20121;-49
2022/07/07 09:58:53;;;;;;;0.20;0.20;;;;;;;16.71;65.85;101392.03;5032495;28;20099;-48
2022/07/07 10:01:24;;;;;;;0.57;0.20;;;;;;;16.80;65.59;101401.44;5032380;28;20021;-49
2022/07/07 10:03:54;;;;;;;0.90;0.30;;;;;;;16.73;65.77;101400.75;5014497;28;20034;-51
2022/07/07 10:06:21;;;;;;;0.40;0.30;;;;;;;16.73;65.68;101401.56;5033906;28;20417;-51
2022/07/07 10:08:54;;;;;;;0.10;0.10;;;;;;;16.80;64.98;101396.88;5033551;28;20155;-51
2022/07/07 10:11:22;;;;;;;0.55;0.40;;;;;;;16.74;65.14;101402.38;5033085;28;20026;-51
2022/07/07 10:13:50;;;;;;;0.20;0.20;;;;;;;16.79;65.25;101399.81;5031824;28;20036;-52
2022/07/07 10:16:17;;;;;;;0.65;0.32;;;;;;;16.69;65.00;101404.94;5034068;28;20022;-49
2022/07/07 10:18:43;;;;;;;0.13;0.13;;;;;;;16.63;65.12;101403.97;5032367;28;20041;-52
2022/07/07 10:21:10;;;;;;;0.32;0.10;;;;;;;16.47;65.58;101399.25;5031648;28;20029;-51
2022/07/07 10:23:36;;;;;;;1.00;0.10;;;;;;;16.63;65.40;101398.56;5033788;28;20390;-51
2022/07/07 10:26:04;;;;;;;0.20;0.20;;;;;;;16.61;65.29;101396.13;5031644;28;20453;-52
2022/07/07 10:28:59;;;;;;;0.20;0.20;;;;;;;16.67;65.12;101393.53;5033428;28;20032;-50
2022/07/07 10:31:28;;;;;;;0.93;0.28;;;;;;;16.58;65.64;101393.03;5032322;28;20049;-51
2022/07/07 10:34:12;;;;;;;1.33;0.20;;;;;;;16.77;64.92;101393.81;5032605;28;20069;-51
2022/07/07 10:36:50;;;;;;;0.45;0.20;;;;;;;16.66;65.16;101392.72;5022987;28;20033;-51
2022/07/07 10:39:24;;;;;;;0.30;0.15;;;;;;;16.64;65.25;101389.41;5020902;28;20034;-51
2022/07/07 10:42:15;;;;;;;0.75;0.20;;;;;;;16.58;65.14;101393.88;5012644;28;20168;-52
2022/07/07 10:44:47;;;;;;;0.63;0.25;;;;;;;16.57;65.25;101392.22;5027835;28;20032;-52
2022/07/07 10:47:13;;;;;;;0.63;0.30;;;;;;;16.52;66.11;101402.91;5043313;28;20151;-51
2022/07/07 10:49:41;;;;;;;0.40;0.32;;;;;;;16.51;66.51;101401.25;5042382;28;20075;-51
2022/07/07 10:52:16;;;;;;;2.08;0.40;;;;;;;16.51;66.74;101397.72;5033157;28;20362;-52
2022/07/07 10:54:50;;;;;;;0.45;0.22;;;;;;;16.54;67.19;101395.38;5033017;28;20038;-51
2022/07/07 10:57:18;;;;;;;0.80;0.30;;;;;;;16.59;67.51;101395.50;5033038;28;20084;-52
2022/07/07 11:00:06;;;;;;;0.93;0.30;;;;;;;16.65;67.46;101388.34;5033028;28;20060;-49
2022/07/07 11:02:37;;;;;;;0.40;0.20;;;;;;;16.60;67.93;101389.06;5032266;28;20021;-48
2022/07/07 11:05:25;;;;;;;0.30;0.25;;;;;;;16.42;68.52;101391.00;5033066;28;20679;-52
2022/07/07 11:08:03;;;;;;;2.63;0.30;;;;;;;16.53;68.70;101388.31;5032220;28;20338;-50
2022/07/07 11:10:51;;;;;;;1.48;0.40;;;;;;;16.46;68.57;101390.31;5032671;28;20029;-50
2022/07/07 11:13:23;;;;;;;0.68;0.30;;;;;;;16.53;68.43;101390.22;5032870;28;20021;-49
2022/07/07 11:15:51;;;;;;;2.25;0.50;;;;;;;16.67;67.94;101390.84;5032922;28;20120;-52
2022/07/07 11:18:19;;;;;;;1.45;0.30;;;;;;;16.52;68.44;101389.38;5032426;28;20033;-52
2022/07/07 11:20:58;;;;;;;0.35;0.20;;;;;;;16.47;68.48;101391.13;5032879;28;20032;-50
2022/07/07 11:23:49;;;;;;;1.35;0.30;;;;;;;16.45;68.64;101391.38;5032751;28;20024;-48
2022/07/07 11:26:20;;;;;;;0.60;0.47;;;;;;;16.68;68.16;101397.88;5033164;28;20064;-50
2022/07/07 11:28:47;;;;;;;0.30;0.20;;;;;;;16.54;68.46;101397.25;5034177;28;20025;-52
2022/07/07 11:31:13;;;;;;;1.48;0.40;;;;;;;16.65;67.92;101396.44;5030211;28;20508;-49